GMTT/TNG METAR and TAF weather

Enter ICAO airport designator
Station Type Date Time Source
GMTT METAR 2019/08/21 23:00 UTC NOAA

GMTT 212300Z 08019KT CAVOK 26/20 Q1014 NOSIG


Station Type Date Time Source
GMTT Decoded METAR 2019/08/21 23:00 UTC NOAA

Station name not available
Aug 21, 2019 - 07:00 PM EDT / 2019.08.21 2300 UTC
Wind: from the E (080 degrees) at 22 MPH (19 KT):0
Visibility: greater than 7 mile(s):0
Temperature: 78 F (26 C)
Dew Point: 68 F (20 C)
Relative Humidity: 69%
Pressure (altimeter): 29.94 in. Hg (1014 hPa)
ob: GMTT 212300Z 08019KT CAVOK 26/20 Q1014 NOSIG
cycle: 23

Station Type Date Time Source
GMTT TAF 2019/08/21 18:33 UTC NOAA

TAF TAF GMTT 211700Z 2118/2224 09018KT CAVOK
TEMPO 2118/2206 09020G30KT
TEMPO 2208/2224 09023G40KT

Example: see airport list